Daybreak2
, South Jordan
Last Weather Update:08/30/2011 11:00:00 PM
Date
ETo
ETc
Rain
Irrigation
Req
Temp
Max
Temp
Min
Temp
Avg
Avg RH
Avg Wind
Avg Solar
inches
inches
incehs
inches
F
F
F
%
%
watts/m2
07/01/2011 0.26" 0.21" 0.00" 0.21" 80.7° 60.7° 71.2° 45.6% 5.3 MPH 338.6w/m2
07/02/2011 0.31" 0.25" 0.00" 0.25" 93.5° 61.9° 78.1° 38.1% 6.9 MPH 334.2w/m2
07/03/2011 0.37" 0.30" 0.00" 0.30" 96.5° 69.1° 83.9° 22.7% 9.0 MPH 321.4w/m2
07/04/2011 0.17" 0.14" 0.00" 0.14" 84.7° 72.9° 78.7° 32.9% 6.8 MPH 93.8w/m2
07/05/2011 0.26" 0.21" 0.00" 0.21" 84.9° 66.5° 75.7° 47.6% 7.2 MPH 286.6w/m2
07/06/2011 0.27" 0.22" 0.02" 0.20" 85.5° 62.7° 74.5° 49.0% 6.3 MPH 322.4w/m2
07/07/2011 0.18" 0.15" 0.00" 0.15" 82.5° 66.5° 73.8° 48.2% 5.8 MPH 161.3w/m2
07/08/2011 0.18" 0.15" 0.00" 0.15" 81.1° 64.8° 71.9° 61.6% 5.4 MPH 209.9w/m2
07/09/2011 0.26" 0.22" 0.02" 0.20" 86.7° 60.0° 72.7° 48.0% 7.5 MPH 292.3w/m2
07/10/2011 0.21" 0.18" 0.08" 0.10" 86.6° 61.7° 70.8° 57.3% 8.0 MPH 222.9w/m2
07/11/2011 0.28" 0.24" 0.00" 0.24" 86.8° 62.3° 73.1° 52.4% 7.9 MPH 310.9w/m2
07/12/2011 0.23" 0.19" 0.01" 0.18" 86.3° 65.4° 74.4° 48.6% 7.8 MPH 225.6w/m2
07/13/2011 0.29" 0.24" 0.00" 0.24" 85.6° 67.7° 75.5° 41.3% 9.5 MPH 286.1w/m2
07/14/2011 0.33" 0.28" 0.00" 0.28" 85.4° 63.9° 75.3° 32.0% 9.1 MPH 340.5w/m2
07/15/2011 0.33" 0.28" 0.00" 0.28" 86.7° 63.7° 75.9° 20.5% 8.1 MPH 334.4w/m2
07/16/2011 0.35" 0.30" 0.00" 0.30" 90.6° 62.8° 77.5° 22.1% 8.4 MPH 340.2w/m2
07/17/2011 0.33" 0.28" 0.00" 0.28" 93.8° 66.2° 79.4° 24.8% 8.5 MPH 291.5w/m2
07/18/2011 0.28" 0.24" 0.00" 0.24" 91.0° 72.7° 80.9° 38.0% 8.5 MPH 221.5w/m2
07/19/2011 0.27" 0.23" 0.00" 0.23" 89.3° 71.3° 79.6° 39.1% 10.1 MPH 195.6w/m2
07/20/2011 0.27" 0.24" 0.00" 0.24" 82.5° 61.8° 73.5° 35.5% 6.2 MPH 329.3w/m2
07/21/2011 0.31" 0.27" 0.01" 0.26" 90.2° 66.5° 77.3° 29.1% 6.6 MPH 328.2w/m2
07/22/2011 0.36" 0.31" 0.00" 0.31" 91.3° 65.8° 79.5° 18.6% 8.9 MPH 331.2w/m2
07/23/2011 0.27" 0.24" 0.00" 0.24" 84.7° 63.2° 75.1° 37.6% 5.7 MPH 321.7w/m2
07/24/2011 0.31" 0.27" 0.00" 0.27" 94.4° 65.1° 80.1° 28.7% 6.1 MPH 326.3w/m2
07/25/2011 0.24" 0.21" 0.01" 0.20" 89.4° 67.6° 78.4° 32.7% 7.7 MPH 181.1w/m2
07/26/2011 0.24" 0.21" 0.00" 0.21" 86.0° 68.6° 74.6° 52.6% 9.4 MPH 230.7w/m2
07/27/2011 0.24" 0.21" 0.07" 0.14" 83.1° 65.4° 73.1° 51.1% 7.9 MPH 238.6w/m2
07/28/2011 0.27" 0.24" 0.02" 0.22" 87.4° 61.0° 75.7° 42.8% 5.6 MPH 308.1w/m2
07/29/2011 0.27" 0.24" 0.00" 0.24" 92.0° 63.6° 79.3° 32.1% 5.8 MPH 277.9w/m2
07/30/2011 0.25" 0.23" 0.00" 0.23" 85.9° 71.6° 78.4° 35.0% 6.5 MPH 233.6w/m2
07/31/2011 0.19" 0.17" 0.81" -0.63" 86.6° 65.4° 74.9° 57.3% 7.3 MPH 178.2w/m2
Totals: 8.39" 7.14" 1.05" 6.10" 96.5° 60.0° 76.2° 39.5% 7.4 MPH 271.4w/m2